Time;durP1;ratioP1;P1;durP2;ratioP2;P2;SDS_P1;SDS_P2;PMS_P1;PMS_P2;Temp;Humidity;BMP_temperature;BMP_pressure;BME280_temperature;BME280_humidity;BME280_pressure;Samples;Min_cycle;Max_cycle;Signal;HPM_P1;HPM_P2
2023/12/01 00:00:12;;;;;;;27.13;13.20;;;;;;;3.44;90.09;99611.78;125722;1099;104175;-81
2023/12/01 00:03:04;;;;;;;28.13;14.70;;;;;;;3.45;89.94;99590.23;125629;1099;104601;-82
2023/12/01 00:05:35;;;;;;;28.57;13.97;;;;;;;3.45;89.36;99594.53;125345;1099;104348;-81
2023/12/01 00:08:07;;;;;;;26.27;11.97;;;;;;;3.45;90.11;99587.63;125324;1099;104169;-80
2023/12/01 00:10:38;;;;;;;27.43;13.37;;;;;;;3.45;90.04;99577.26;125100;1099;104233;-82
2023/12/01 00:13:10;;;;;;;26.00;13.50;;;;;;;3.45;89.24;99582.45;125188;1099;104205;-81
2023/12/01 00:15:41;;;;;;;24.33;12.10;;;;;;;3.44;90.48;99590.16;125533;1098;102090;-82
2023/12/01 00:18:13;;;;;;;28.03;13.60;;;;;;;3.42;90.39;99570.20;125328;1099;104180;-80
2023/12/01 00:20:44;;;;;;;27.57;13.37;;;;;;;3.42;90.02;99583.17;125730;1099;104102;-81
2023/12/01 00:23:16;;;;;;;27.17;13.20;;;;;;;3.43;90.11;99584.08;125666;1099;104088;-80
2023/12/01 00:25:48;;;;;;;28.43;12.90;;;;;;;3.43;89.93;99584.08;125333;1099;101880;-80
2023/12/01 00:28:19;;;;;;;24.53;12.10;;;;;;;3.42;90.32;99572.80;125125;1099;101951;-80
2023/12/01 00:30:51;;;;;;;26.20;12.53;;;;;;;3.44;90.52;99562.50;125063;1099;104280;-80
2023/12/01 00:33:22;;;;;;;26.33;13.07;;;;;;;3.45;90.25;99561.70;124927;1099;104251;-82
2023/12/01 00:35:54;;;;;;;26.33;12.63;;;;;;;3.48;90.94;99561.84;125547;1098;101844;-80
2023/12/01 00:38:25;;;;;;;26.43;12.00;;;;;;;3.49;91.06;99562.72;125043;1099;101922;-80
2023/12/01 00:40:57;;;;;;;24.60;11.60;;;;;;;3.49;90.72;99566.23;125729;1098;102175;-80
2023/12/01 00:43:28;;;;;;;26.20;12.60;;;;;;;3.50;90.46;99567.11;125605;1099;104104;-80
2023/12/01 00:46:00;;;;;;;24.50;11.23;;;;;;;3.51;90.65;99566.31;125624;1098;104176;-81
2023/12/01 00:48:32;;;;;;;25.67;11.70;;;;;;;3.52;90.59;99552.50;125731;1099;104284;-79
2023/12/01 00:51:03;;;;;;;27.60;12.90;;;;;;;3.53;90.79;99562.07;125231;1099;102083;-80
2023/12/01 00:53:35;;;;;;;24.85;12.40;;;;;;;3.53;90.69;99552.58;125769;1097;101959;-80
2023/12/01 00:56:08;;;;;;;25.20;12.37;;;;;;;3.55;91.20;99550.05;125624;1099;101996;-80
2023/12/01 00:58:40;;;;;;;24.85;12.37;;;;;;;3.56;91.06;99544.06;125889;1098;104192;-80
2023/12/01 01:01:11;;;;;;;27.87;12.77;;;;;;;3.57;91.05;99531.17;125507;1099;102328;-80
2023/12/01 01:03:43;;;;;;;24.40;12.20;;;;;;;3.58;90.74;99538.14;125835;1099;104172;-80
2023/12/01 01:06:14;;;;;;;21.60;10.60;;;;;;;3.58;91.32;99530.36;125378;1099;102121;-80
2023/12/01 01:08:46;;;;;;;23.97;11.37;;;;;;;3.59;91.22;99524.34;125616;1099;101836;-80
2023/12/01 01:11:17;;;;;;;24.27;10.87;;;;;;;3.59;91.01;99520.86;125632;1099;104201;-79
2023/12/01 01:13:49;;;;;;;25.30;13.57;;;;;;;3.59;91.02;99521.74;125510;1099;104185;-79
2023/12/01 01:16:22;;;;;;;25.90;12.13;;;;;;;3.59;90.71;99503.58;125898;1099;101687;-80
2023/12/01 01:18:53;;;;;;;24.07;11.87;;;;;;;3.60;91.18;99505.37;125842;1099;104338;-79
2023/12/01 01:21:25;;;;;;;23.90;11.10;;;;;;;3.58;90.53;99501.83;125810;1099;101922;-80
2023/12/01 01:23:56;;;;;;;25.13;12.47;;;;;;;3.58;91.49;99500.92;125931;1098;101758;-79
2023/12/01 01:26:28;;;;;;;25.90;11.63;;;;;;;3.57;91.36;99491.37;125311;1099;104269;-79
2023/12/01 01:29:00;;;;;;;23.40;11.37;;;;;;;3.58;91.61;99491.45;125139;1099;102223;-81
2023/12/01 01:31:31;;;;;;;25.03;11.53;;;;;;;3.59;91.78;99487.14;125673;1099;101998;-80
2023/12/01 01:34:03;;;;;;;26.70;11.80;;;;;;;3.59;91.98;99490.61;125420;1097;104354;-79
2023/12/01 01:36:34;;;;;;;24.60;11.93;;;;;;;3.60;91.74;99482.02;125790;1099;102464;-79
2023/12/01 01:39:06;;;;;;;23.80;11.17;;;;;;;3.61;91.17;99467.34;125763;1099;102093;-80
2023/12/01 01:41:37;;;;;;;23.73;11.07;;;;;;;3.61;91.64;99462.15;125953;1099;102087;-81
2023/12/01 01:44:09;;;;;;;25.27;11.20;;;;;;;3.62;91.64;99455.27;125757;1099;104328;-81
2023/12/01 01:46:41;;;;;;;25.17;11.87;;;;;;;3.60;91.20;99452.61;125463;1099;102331;-79
2023/12/01 01:49:14;;;;;;;23.13;11.03;;;;;;;3.61;92.56;99438.80;125116;1099;102202;-80
2023/12/01 01:51:46;;;;;;;24.93;12.23;;;;;;;3.60;91.71;99455.20;125071;1099;101843;-79
2023/12/01 01:54:23;;;;;;;21.97;10.47;;;;;;;3.60;92.39;99448.30;125248;1099;104208;-81
2023/12/01 01:56:57;;;;;;;22.65;11.18;;;;;;;3.62;91.94;99437.12;125332;1099;104293;-80
2023/12/01 01:59:28;;;;;;;25.43;12.00;;;;;;;3.63;92.32;99444.06;125192;1099;102202;-80
2023/12/01 02:02:00;;;;;;;23.23;11.13;;;;;;;3.63;92.20;99437.19;125686;1099;104213;-79
2023/12/01 02:04:32;;;;;;;24.47;11.43;;;;;;;3.66;92.86;99420.85;125722;1099;104252;-79
2023/12/01 02:07:04;;;;;;;23.87;11.37;;;;;;;3.66;93.10;99416.58;124994;1100;102083;-79
2023/12/01 02:09:36;;;;;;;23.73;11.43;;;;;;;3.66;92.83;99428.64;124950;1099;102003;-79
2023/12/01 02:12:09;;;;;;;25.13;10.40;;;;;;;3.66;92.41;99433.83;125018;1099;101983;-78
2023/12/01 02:14:40;;;;;;;22.73;11.50;;;;;;;3.68;92.43;99430.50;125021;1102;102596;-78
2023/12/01 02:17:12;;;;;;;24.20;11.67;;;;;;;3.71;92.96;99427.13;125119;1099;104172;-78
2023/12/01 02:19:43;;;;;;;22.57;10.87;;;;;;;3.73;92.84;99428.11;125085;1099;104272;-79
2023/12/01 02:22:15;;;;;;;23.00;10.30;;;;;;;3.75;93.04;99423.87;125571;1099;102477;-78
2023/12/01 02:24:47;;;;;;;23.20;10.40;;;;;;;3.75;92.28;99413.49;125656;1099;104319;-78
2023/12/01 02:27:18;;;;;;;24.00;10.60;;;;;;;3.77;92.98;99414.44;125448;1099;104629;-79
2023/12/01 02:29:50;;;;;;;21.10;10.33;;;;;;;3.76;92.68;99413.56;125417;1099;104211;-80
2023/12/01 02:32:21;;;;;;;22.70;11.03;;;;;;;3.77;92.60;99394.59;125088;1099;101858;-78
2023/12/01 02:34:53;;;;;;;23.87;11.43;;;;;;;3.78;93.07;99396.34;125583;1099;104309;-78
2023/12/01 02:37:24;;;;;;;21.30;10.25;;;;;;;3.78;92.86;99400.66;125252;1099;104748;-78
2023/12/01 02:39:56;;;;;;;21.20;9.87;;;;;;;3.77;92.99;99392.00;125725;1099;104322;-79
2023/12/01 02:42:27;;;;;;;21.43;10.40;;;;;;;3.78;92.91;99375.58;125448;1099;103654;-78
2023/12/01 02:44:58;;;;;;;22.40;10.13;;;;;;;3.79;92.85;99376.49;125728;1099;104211;-78
2023/12/01 02:47:30;;;;;;;22.93;9.97;;;;;;;3.80;93.21;99365.27;125650;1099;102007;-78
2023/12/01 02:50:01;;;;;;;21.57;10.40;;;;;;;3.82;92.64;99367.94;125635;1099;104272;-77
2023/12/01 02:52:33;;;;;;;19.80;9.70;;;;;;;3.83;92.95;99359.34;125640;1099;102351;-78
2023/12/01 02:55:05;;;;;;;21.53;10.53;;;;;;;3.83;93.17;99352.44;125558;1098;101859;-78
2023/12/01 02:57:37;;;;;;;20.90;9.47;;;;;;;3.84;93.20;99354.22;125546;1098;104242;-78
2023/12/01 03:00:13;;;;;;;23.20;10.07;;;;;;;3.85;93.08;99360.28;125683;1099;102089;-78
2023/12/01 03:02:45;;;;;;;23.20;9.80;;;;;;;3.87;93.83;99359.55;124992;1099;101886;-78
2023/12/01 03:05:16;;;;;;;23.60;10.93;;;;;;;3.89;93.60;99354.42;125017;1099;104208;-78
2023/12/01 03:07:48;;;;;;;20.97;10.20;;;;;;;3.90;93.32;99354.48;125357;1099;104251;-78
2023/12/01 03:10:20;;;;;;;23.05;10.90;;;;;;;3.92;93.92;99344.17;125680;1099;101827;-79
2023/12/01 03:12:51;;;;;;;22.43;9.70;;;;;;;3.93;93.79;99344.24;125638;1099;102351;-78
2023/12/01 03:15:24;;;;;;;21.70;10.57;;;;;;;3.92;93.41;99342.45;125512;1099;104316;-79
2023/12/01 03:17:55;;;;;;;22.70;10.03;;;;;;;3.93;94.23;99343.37;125503;1099;102578;-78
2023/12/01 03:20:28;;;;;;;20.13;10.10;;;;;;;3.93;93.60;99338.17;125458;1099;104169;-78
2023/12/01 03:22:59;;;;;;;21.33;10.70;;;;;;;3.94;94.11;99338.24;125031;1099;104303;-78
2023/12/01 03:25:33;;;;;;;20.27;10.17;;;;;;;3.94;94.15;99332.14;124957;1099;104166;-78
2023/12/01 03:28:05;;;;;;;22.30;10.73;;;;;;;3.95;94.04;99326.14;125587;1098;104175;-78
2023/12/01 03:30:36;;;;;;;22.23;10.53;;;;;;;3.98;94.59;99330.59;125653;1098;102034;-79
2023/12/01 03:33:07;;;;;;;21.90;10.80;;;;;;;3.99;94.53;99327.16;125296;1098;102822;-78
2023/12/01 03:35:39;;;;;;;20.87;10.60;;;;;;;3.98;94.49;99326.27;125596;1099;101859;-78
2023/12/01 03:38:10;;;;;;;23.33;11.30;;;;;;;4.00;94.34;99321.15;125532;1099;102137;-78
2023/12/01 03:40:42;;;;;;;22.17;10.80;;;;;;;4.02;94.23;99314.30;125628;1098;104233;-78
2023/12/01 03:43:14;;;;;;;19.83;9.60;;;;;;;4.02;94.27;99327.28;125601;1099;101829;-78
2023/12/01 03:45:45;;;;;;;23.37;10.77;;;;;;;4.02;94.82;99330.79;125444;1099;104290;-78
2023/12/01 03:48:17;;;;;;;21.60;10.40;;;;;;;4.04;94.45;99326.54;125599;1099;101938;-78
2023/12/01 03:50:50;;;;;;;21.77;10.00;;;;;;;4.03;94.33;99316.09;125501;1099;104642;-78
2023/12/01 03:53:21;;;;;;;21.07;9.97;;;;;;;4.03;94.69;99308.30;125485;1098;104178;-78
2023/12/01 03:55:53;;;;;;;22.87;9.93;;;;;;;4.03;95.18;99314.37;125572;1099;104326;-78
2023/12/01 03:58:25;;;;;;;21.27;10.27;;;;;;;4.04;94.57;99297.98;125525;1099;104094;-78
2023/12/01 04:00:57;;;;;;;20.40;10.30;;;;;;;4.04;94.98;99295.39;125619;1098;104277;-78
2023/12/01 04:03:28;;;;;;;21.10;10.13;;;;;;;4.03;94.97;99298.80;125574;1099;104179;-78
2023/12/01 04:06:01;;;;;;;22.60;10.53;;;;;;;4.04;95.31;99294.52;124968;1099;104358;-79
2023/12/01 04:08:33;;;;;;;21.23;10.03;;;;;;;4.04;95.08;99289.32;124974;1099;104275;-78
2023/12/01 04:11:06;;;;;;;20.73;8.90;;;;;;;4.03;95.48;99283.22;125641;1099;101754;-78
2023/12/01 04:13:38;;;;;;;23.10;9.83;;;;;;;4.04;94.82;99268.55;125516;1099;104332;-79
2023/12/01 04:16:10;;;;;;;19.07;9.77;;;;;;;4.04;95.05;99279.81;125507;1099;104338;-79
2023/12/01 04:18:45;;;;;;;20.10;9.40;;;;;;;4.04;95.68;99263.36;125496;1099;101986;-79
2023/12/01 04:21:16;;;;;;;19.93;10.10;;;;;;;4.06;95.48;99269.49;125502;1099;101945;-78
2023/12/01 04:23:48;;;;;;;21.47;9.67;;;;;;;4.05;95.65;99273.81;125507;1099;104313;-78
2023/12/01 04:26:19;;;;;;;21.27;10.53;;;;;;;4.05;95.03;99271.22;124912;1099;104171;-79
2023/12/01 04:28:51;;;;;;;21.60;9.83;;;;;;;4.07;95.33;99276.47;124928;1099;104191;-78
2023/12/01 04:31:23;;;;;;;19.83;9.20;;;;;;;4.09;95.11;99261.83;125557;1099;101919;-78
2023/12/01 04:33:59;;;;;;;20.87;9.93;;;;;;;4.11;95.78;99260.17;125591;1099;101904;-79
2023/12/01 04:36:31;;;;;;;20.40;9.70;;;;;;;4.13;95.33;99263.75;125518;1099;101782;-79
2023/12/01 04:39:03;;;;;;;23.50;10.20;;;;;;;4.14;95.84;99263.81;125418;1099;102297;-78
2023/12/01 04:41:35;;;;;;;23.35;10.05;;;;;;;4.17;95.81;99265.62;125016;1099;104179;-78
2023/12/01 04:44:07;;;;;;;21.20;11.17;;;;;;;4.16;95.47;99256.08;125328;1098;104245;-78
2023/12/01 04:46:38;;;;;;;21.33;10.30;;;;;;;4.19;95.71;99250.11;125515;1099;104306;-78
2023/12/01 04:49:10;;;;;;;22.93;11.60;;;;;;;4.20;95.49;99252.77;125498;1099;103524;-78
2023/12/01 04:51:41;;;;;;;21.33;10.17;;;;;;;4.21;95.36;99241.57;125351;1099;102353;-79
2023/12/01 04:54:13;;;;;;;22.13;11.17;;;;;;;4.21;96.06;99241.57;125527;1098;104230;-79
2023/12/01 04:56:45;;;;;;;22.03;10.53;;;;;;;4.23;95.81;99242.51;125439;1099;104274;-78
2023/12/01 04:59:16;;;;;;;22.73;10.43;;;;;;;4.24;95.73;99236.50;125461;1099;102309;-79
2023/12/01 05:01:48;;;;;;;22.70;11.20;;;;;;;4.25;95.68;99222.67;125470;1099;112097;-79
2023/12/01 05:04:19;;;;;;;23.20;11.40;;;;;;;4.25;95.62;99217.48;125244;1099;102458;-78
2023/12/01 05:06:51;;;;;;;22.23;10.17;;;;;;;4.26;95.86;99221.86;125523;1099;102048;-79
2023/12/01 05:09:22;;;;;;;20.57;9.97;;;;;;;4.27;96.09;99225.33;125485;1099;104177;-78
2023/12/01 05:11:54;;;;;;;21.00;10.53;;;;;;;4.27;96.10;99225.33;125483;1099;104225;-78
2023/12/01 05:14:25;;;;;;;22.30;10.93;;;;;;;4.29;96.23;99234.97;125409;1099;102010;-78
2023/12/01 05:16:57;;;;;;;22.13;10.10;;;;;;;4.31;96.42;99235.03;125425;1099;102009;-79
2023/12/01 05:19:28;;;;;;;20.90;10.03;;;;;;;4.33;95.87;99225.58;125450;1099;104204;-81
2023/12/01 05:22:02;;;;;;;23.90;10.50;;;;;;;4.34;96.19;99232.56;125356;1099;104184;-79
2023/12/01 05:24:33;;;;;;;23.80;11.95;;;;;;;4.36;96.10;99219.63;125342;1098;104182;-78
2023/12/01 05:27:08;;;;;;;22.70;11.00;;;;;;;4.35;96.07;99218.76;125207;1098;102080;-78
2023/12/01 05:29:39;;;;;;;21.97;10.97;;;;;;;4.36;96.46;99223.11;125443;1098;104211;-78
2023/12/01 05:32:10;;;;;;;24.17;11.13;;;;;;;4.37;96.28;99222.29;125324;1099;102082;-79
2023/12/01 05:34:42;;;;;;;23.30;11.83;;;;;;;4.38;96.74;99228.36;125184;1099;104166;-78
2023/12/01 05:37:14;;;;;;;22.83;11.07;;;;;;;4.38;96.20;99226.67;125327;1099;104207;-78
2023/12/01 05:39:45;;;;;;;22.40;11.53;;;;;;;4.40;96.45;99221.54;124934;1099;104185;-78
2023/12/01 05:42:22;;;;;;;24.40;11.65;;;;;;;4.41;96.87;99226.80;125440;1099;101827;-80
2023/12/01 05:44:55;;;;;;;21.07;10.83;;;;;;;4.44;96.84;99228.61;125366;1098;102397;-80
2023/12/01 05:47:28;;;;;;;23.97;11.23;;;;;;;4.44;96.63;99223.41;125373;1099;104182;-80
2023/12/01 05:50:01;;;;;;;22.23;11.43;;;;;;;4.44;96.39;99218.22;125444;1099;101861;-79
2023/12/01 05:52:33;;;;;;;23.45;11.45;;;;;;;4.44;96.63;99221.72;125328;1099;102521;-80
2023/12/01 05:55:10;;;;;;;24.07;11.43;;;;;;;4.50;97.19;99213.27;125328;1099;103990;-76
2023/12/01 05:57:42;;;;;;;25.00;12.30;;;;;;;4.56;97.56;99204.84;125207;1099;101974;-78
2023/12/01 06:00:17;;;;;;;27.10;11.53;;;;;;;4.60;97.26;99212.81;125453;1099;101827;-79
2023/12/01 06:02:50;;;;;;;21.97;10.93;;;;;;;4.64;97.70;99206.92;125129;1099;104223;-78
2023/12/01 06:05:23;;;;;;;24.63;11.60;;;;;;;4.67;97.47;99211.33;125194;1099;104245;-78
2023/12/01 06:07:55;;;;;;;25.73;10.83;;;;;;;4.70;97.31;99207.97;124870;1099;104277;-80
2023/12/01 06:10:28;;;;;;;23.87;11.73;;;;;;;4.74;97.41;99213.34;125182;1099;102477;-76
2023/12/01 06:13:04;;;;;;;22.57;11.43;;;;;;;4.82;97.40;99222.31;125111;1099;104176;-79
2023/12/01 06:15:36;;;;;;;24.03;11.80;;;;;;;4.88;97.91;99216.47;125307;1099;104179;-78
2023/12/01 06:18:08;;;;;;;24.00;11.80;;;;;;;4.95;97.45;99210.66;125495;1099;102068;-81
2023/12/01 06:20:41;;;;;;;23.10;11.35;;;;;;;4.98;97.25;99207.30;125518;1099;101765;-81
2023/12/01 06:23:16;;;;;;;25.10;11.70;;;;;;;5.01;97.52;99210.00;125461;1099;102254;-81
2023/12/01 06:25:50;;;;;;;25.37;12.10;;;;;;;5.07;97.46;99204.16;125531;1099;102161;-84
2023/12/01 06:28:26;;;;;;;26.17;12.37;;;;;;;5.13;97.24;99200.06;125577;1099;104163;-79
2023/12/01 06:30:59;;;;;;;28.20;14.27;;;;;;;5.17;97.65;99214.05;125488;1099;102013;-79
2023/12/01 06:37:23;;;;;;;23.63;11.20;;;;;;;5.31;97.46;99206.75;127496;1099;101936;-87
2023/12/01 06:40:12;;;;;;;24.57;10.83;;;;;;;5.37;97.47;99206.97;127006;1098;104104;-86
2023/12/01 06:42:48;;;;;;;21.47;9.97;;;;;;;5.41;97.34;99206.27;126980;1098;101636;-79
2023/12/01 06:45:21;;;;;;;24.43;11.00;;;;;;;5.49;97.38;99214.34;126918;1099;104082;-79
2023/12/01 06:47:59;;;;;;;25.93;12.03;;;;;;;5.54;97.51;99216.25;126205;1099;101788;-76
2023/12/01 06:50:31;;;;;;;22.83;11.50;;;;;;;5.60;97.16;99222.52;125458;1102;102826;-78
2023/12/01 06:53:08;;;;;;;26.67;12.87;;;;;;;5.64;97.50;99219.17;125417;1099;101921;-79
2023/12/01 06:55:56;;;;;;;23.70;11.10;;;;;;;5.66;97.50;99223.61;125467;1099;102189;-79
2023/12/01 06:58:32;;;;;;;22.63;10.73;;;;;;;5.69;97.50;99213.31;124787;1099;104235;-81
2023/12/01 07:01:04;;;;;;;19.83;9.47;;;;;;;5.73;96.98;99206.48;124755;1102;101957;-82
2023/12/01 07:06:28;;;;;;;24.37;10.93;;;;;;;5.80;96.98;99226.69;126301;1098;102114;-83
2023/12/01 07:09:03;;;;;;;22.50;10.50;;;;;;;5.85;97.04;99229.45;126142;1098;104286;-79
2023/12/01 07:12:06;;;;;;;21.07;9.70;;;;;;;5.85;97.06;99235.54;125983;1099;101776;-79
2023/12/01 07:17:46;;;;;;;16.27;7.57;;;;;;;5.87;96.83;99232.98;126508;1098;103120;-80
2023/12/01 07:20:24;;;;;;;16.50;7.23;;;;;;;5.87;96.60;99225.17;126459;1099;104272;-78
2023/12/01 07:22:56;;;;;;;18.43;8.30;;;;;;;5.92;96.88;99236.63;126649;1098;102080;-77
2023/12/01 07:25:31;;;;;;;21.60;8.97;;;;;;;5.94;96.93;99232.38;125953;1099;102036;-77
2023/12/01 07:28:04;;;;;;;19.77;8.53;;;;;;;6.00;96.85;99235.22;125223;1102;104667;-78
2023/12/01 07:30:40;;;;;;;19.13;8.80;;;;;;;6.04;96.79;99229.26;127187;1098;104316;-77
2023/12/01 07:33:26;;;;;;;19.00;7.97;;;;;;;6.05;96.38;99232.77;126161;1098;104229;-77
2023/12/01 07:36:03;;;;;;;19.10;8.80;;;;;;;6.05;96.63;99223.23;126332;1099;101914;-74
2023/12/01 07:38:34;;;;;;;19.25;8.63;;;;;;;6.10;96.22;99224.25;127524;1098;104098;-77
2023/12/01 07:41:07;;;;;;;21.37;8.90;;;;;;;6.12;96.38;99208.68;126407;1098;101766;-76
2023/12/01 07:43:40;;;;;;;19.03;8.07;;;;;;;6.19;96.42;99228.02;126997;1098;102013;-77
2023/12/01 07:46:17;;;;;;;22.37;10.20;;;;;;;6.23;96.44;99219.45;125314;1099;104283;-76
2023/12/01 07:48:52;;;;;;;18.00;8.03;;;;;;;6.23;95.96;99220.36;125985;1098;104242;-77
2023/12/01 07:51:27;;;;;;;20.75;9.80;;;;;;;6.26;96.46;99229.97;125805;1099;102215;-80
2023/12/01 07:54:04;;;;;;;19.87;8.30;;;;;;;6.28;96.75;99236.14;125216;1099;104239;-78
2023/12/01 07:56:51;;;;;;;18.37;7.33;;;;;;;6.32;96.53;99229.30;125263;1099;102157;-78
2023/12/01 07:59:38;;;;;;;;;;;;;;;;;;;;;
2023/12/01 08:02:11;;;;;;;15.27;7.10;;;;;;;6.45;96.27;99234.05;125999;1099;104070;-78
2023/12/01 08:04:49;;;;;;;18.00;7.40;;;;;;;6.52;96.08;99212.56;126620;1097;101874;-82
2023/12/01 08:07:21;;;;;;;14.77;6.90;;;;;;;6.59;95.97;99222.36;125562;1099;104329;-81
2023/12/01 08:09:53;;;;;;;15.53;7.27;;;;;;;6.63;95.66;99213.77;127190;1098;101929;-82
2023/12/01 08:12:25;;;;;;;;;;;;;;;6.67;95.27;99219.98;126808;1099;102405;-78
2023/12/01 08:14:59;;;;;;;16.20;6.87;;;;;;;6.71;95.77;99227.05;125551;1098;102023;-78
2023/12/01 08:17:31;;;;;;;15.35;5.83;;;;;;;6.77;95.83;99229.84;125270;1099;104239;-76
2023/12/01 08:20:05;;;;;;;16.23;8.10;;;;;;;6.81;95.94;99226.50;125715;1097;101879;-78
2023/12/01 08:22:39;;;;;;;16.57;6.37;;;;;;;6.86;95.73;99215.30;126486;1099;102008;-79
2023/12/01 08:25:17;;;;;;;15.33;6.33;;;;;;;6.92;96.00;99213.78;125795;1099;102023;-80
2023/12/01 08:27:56;;;;;;;12.53;6.17;;;;;;;6.99;95.43;99205.28;126362;1098;103209;-75
2023/12/01 08:30:32;;;;;;;13.00;5.67;;;;;;;7.10;95.64;99205.59;125923;1098;102009;-78
2023/12/01 08:33:24;;;;;;;13.00;5.73;;;;;;;7.24;96.54;99215.55;125467;1099;103251;-77
2023/12/01 08:36:19;;;;;;;12.50;5.83;;;;;;;7.32;95.59;99203.59;125960;1098;102038;-77
2023/12/01 08:38:53;;;;;;;12.77;5.77;;;;;;;7.35;95.55;99194.15;125990;1098;104205;-81
2023/12/01 08:41:25;;;;;;;12.33;5.70;;;;;;;7.43;95.45;99199.55;126396;1098;104089;-81
2023/12/01 08:44:01;;;;;;;12.97;5.83;;;;;;;7.47;95.50;99196.20;124819;1099;104172;-78
2023/12/01 08:46:33;;;;;;;15.07;5.80;;;;;;;7.50;94.84;99201.50;126991;1098;101335;-80
2023/12/01 08:49:05;;;;;;;12.63;6.03;;;;;;;7.54;95.42;99199.84;125906;1099;104308;-79
2023/12/01 08:52:12;;;;;;;15.88;6.28;;;;;;;7.59;94.60;99199.97;126264;1099;102490;-83
2023/12/01 08:54:49;;;;;;;11.77;5.57;;;;;;;7.64;94.70;99206.22;126708;1097;104118;-77
2023/12/01 08:57:21;;;;;;;13.43;5.73;;;;;;;7.67;95.02;99195.86;125731;1099;104128;-81
2023/12/01 08:59:56;;;;;;;14.43;5.83;;;;;;;7.69;94.65;99187.20;126135;1098;104229;-80
2023/12/01 09:02:28;;;;;;;14.63;5.80;;;;;;;7.71;95.03;99192.46;127239;1098;102029;-83
2023/12/01 09:05:00;;;;;;;13.77;6.17;;;;;;;7.73;94.86;99189.06;125722;1099;102398;-78
2023/12/01 09:07:33;;;;;;;11.90;5.70;;;;;;;7.73;94.18;99177.74;126413;1098;101842;-76
2023/12/01 09:10:07;;;;;;;14.10;6.10;;;;;;;7.76;94.09;99201.32;125610;1099;101746;-77
2023/12/01 09:12:39;;;;;;;13.87;5.90;;;;;;;7.79;94.54;99210.94;126356;1098;104162;-77
2023/12/01 09:15:14;;;;;;;13.20;6.23;;;;;;;7.76;93.94;99203.03;126132;1099;101980;-76
2023/12/01 09:17:49;;;;;;;14.57;6.30;;;;;;;7.79;94.09;99190.05;124752;1102;102057;-77
2023/12/01 09:20:23;;;;;;;14.70;6.00;;;;;;;7.86;94.73;99187.64;124873;1102;101905;-78
2023/12/01 09:22:55;;;;;;;17.60;6.20;;;;;;;7.90;94.76;99194.72;126179;1098;101954;-77
2023/12/01 09:25:28;;;;;;;14.57;6.13;;;;;;;7.93;93.93;99178.22;125080;1099;102226;-77
2023/12/01 09:28:01;;;;;;;15.83;6.50;;;;;;;7.96;94.30;99175.69;126017;1098;104189;-77
2023/12/01 09:30:33;;;;;;;15.47;5.97;;;;;;;7.94;94.01;99179.13;125989;1098;102033;-76
2023/12/01 09:33:05;;;;;;;14.67;6.03;;;;;;;7.93;93.61;99188.67;124797;1099;102159;-75
2023/12/01 09:35:38;;;;;;;15.10;5.97;;;;;;;7.97;93.59;99181.81;126001;1099;103195;-77
2023/12/01 09:38:10;;;;;;;12.93;6.20;;;;;;;8.04;93.87;99175.88;126074;1098;101836;-78
2023/12/01 09:40:43;;;;;;;13.33;6.00;;;;;;;8.10;93.19;99169.09;125114;1099;104332;-74
2023/12/01 09:43:20;;;;;;;16.53;6.30;;;;;;;8.15;93.13;99158.75;124760;1099;104095;-75
2023/12/01 09:45:54;;;;;;;14.40;6.40;;;;;;;8.21;93.52;99158.00;124685;1100;104268;-75
2023/12/01 09:48:24;;;;;;;;;;;;;;;8.26;92.85;99153.78;126055;1098;104239;-78
2023/12/01 09:50:58;;;;;;;13.17;5.87;;;;;;;8.23;93.01;99146.74;126187;1098;101738;-76
2023/12/01 09:53:29;;;;;;;14.43;6.37;;;;;;;8.27;92.90;99155.53;125114;1099;104242;-80
2023/12/01 09:56:05;;;;;;;13.83;5.85;;;;;;;8.26;92.90;99157.27;126228;1098;102289;-77
2023/12/01 09:58:37;;;;;;;13.88;6.33;;;;;;;8.26;93.32;99157.27;125382;1099;104175;-74
2023/12/01 10:01:10;;;;;;;15.33;6.53;;;;;;;8.30;93.29;99160.83;125037;1099;104274;-75
2023/12/01 10:03:46;;;;;;;11.80;5.67;;;;;;;8.34;93.44;99159.19;125474;1099;102167;-76
2023/12/01 10:06:19;;;;;;;13.33;6.30;;;;;;;8.36;92.86;99158.35;124917;1099;104357;-76
2023/12/01 10:15:26;;;;;;;13.33;6.50;;;;;;;8.53;92.46;99137.86;124942;1102;102536;-75
2023/12/01 10:18:15;;;;;;;17.20;6.70;;;;;;;8.58;92.87;99135.34;125243;1102;104191;-76
2023/12/01 10:21:02;;;;;;;15.97;6.23;;;;;;;8.59;93.09;99124.92;125340;1099;102381;-80
2023/12/01 10:23:36;;;;;;;15.47;6.33;;;;;;;8.64;93.06;99132.86;125902;1099;104252;-75
2023/12/01 10:26:09;;;;;;;13.90;6.50;;;;;;;8.72;92.63;99125.18;124458;1099;104233;-75
2023/12/01 10:28:43;;;;;;;17.07;6.43;;;;;;;8.78;93.19;99125.31;125159;1099;112755;-77
2023/12/01 10:31:17;;;;;;;15.28;5.97;;;;;;;8.85;92.30;99140.30;125020;1099;101974;-77
2023/12/01 10:33:52;;;;;;;13.47;6.20;;;;;;;8.92;92.84;99128.22;125279;1098;102375;-79
2023/12/01 10:36:23;;;;;;;15.73;5.97;;;;;;;8.96;91.96;99130.02;125600;1099;101759;-80
2023/12/01 10:39:07;;;;;;;14.77;6.27;;;;;;;9.00;92.08;99124.01;124836;1099;104235;-78
2023/12/01 10:41:40;;;;;;;14.50;6.00;;;;;;;9.01;91.81;99133.64;125964;1098;102283;-77
2023/12/01 10:44:15;;;;;;;13.93;5.97;;;;;;;9.03;92.06;99131.92;124556;1099;104242;-78
2023/12/01 10:46:48;;;;;;;15.17;6.30;;;;;;;9.08;91.96;99132.02;124714;1099;104271;-78
2023/12/01 10:49:20;;;;;;;17.70;6.50;;;;;;;9.12;92.54;99137.34;125415;1099;107042;-80
2023/12/01 10:52:12;;;;;;;13.10;5.90;;;;;;;9.11;92.08;99127.71;124978;1099;102772;-77
2023/12/01 10:54:45;;;;;;;17.57;6.40;;;;;;;9.15;92.30;99121.70;124604;1099;104287;-78
2023/12/01 10:57:33;;;;;;;14.70;6.50;;;;;;;9.24;92.22;99112.24;125174;1099;102281;-76
2023/12/01 11:00:19;;;;;;;11.80;5.57;;;;;;;9.33;92.02;99105.47;124853;1099;104296;-77
2023/12/01 11:02:53;;;;;;;16.43;5.97;;;;;;;9.37;92.10;99102.91;125869;1098;104239;-74
2023/12/01 11:05:26;;;;;;;15.23;6.35;;;;;;;9.37;91.61;99103.78;124638;1099;104293;-76
2023/12/01 11:08:14;;;;;;;15.00;6.40;;;;;;;9.41;92.01;99109.94;124840;1099;102470;-78
2023/12/01 11:10:57;;;;;;;15.47;6.37;;;;;;;9.45;92.40;99107.41;125357;1099;101857;-75
2023/12/01 11:13:54;;;;;;;13.80;5.67;;;;;;;9.50;91.43;99108.36;126409;1098;101986;-75
2023/12/01 11:16:26;;;;;;;14.77;6.43;;;;;;;9.57;91.65;99119.84;126353;1098;104194;-74
2023/12/01 11:18:59;;;;;;;15.03;6.30;;;;;;;9.58;91.81;99118.09;125261;1099;102023;-73
2023/12/01 11:21:31;;;;;;;17.40;6.50;;;;;;;9.59;91.78;99112.02;125320;1098;104258;-81
2023/12/01 11:24:26;;;;;;;13.33;6.17;;;;;;;9.58;92.06;99111.11;126515;1098;102028;-78
2023/12/01 11:27:03;;;;;;;;;;;;;;;9.57;91.03;99113.70;126484;1098;101962;-78
2023/12/01 11:29:39;;;;;;;15.35;6.30;;;;;;;9.59;91.32;99106.78;125270;1099;102210;-76
2023/12/01 11:32:12;;;;;;;15.83;7.10;;;;;;;9.59;91.47;99112.89;125433;1099;104209;-76
2023/12/01 11:35:06;;;;;;;15.23;6.73;;;;;;;9.58;91.85;99098.02;126444;1098;101820;-82
2023/12/01 11:38:04;;;;;;;15.73;6.67;;;;;;;9.54;91.46;99106.70;125566;1099;102303;-78
2023/12/01 11:40:42;;;;;;;16.07;6.47;;;;;;;9.51;91.72;99106.64;125191;1099;118673;-74
2023/12/01 11:43:14;;;;;;;14.90;6.57;;;;;;;9.46;91.35;99116.16;125145;1099;102049;-75
2023/12/01 11:48:45;;;;;;;14.50;6.50;;;;;;;9.41;91.18;99125.65;126906;1098;101810;-76
2023/12/01 11:51:36;;;;;;;15.40;6.57;;;;;;;9.43;91.04;99129.20;126541;1098;101782;-78
2023/12/01 11:54:12;;;;;;;18.35;7.25;;;;;;;9.42;91.46;99125.67;125168;1099;104175;-75
2023/12/01 11:57:03;;;;;;;18.50;7.10;;;;;;;9.44;90.97;99123.99;125350;1099;102186;-77
2023/12/01 11:59:44;;;;;;;19.13;7.37;;;;;;;9.47;91.06;99115.29;125550;1099;101833;-75
2023/12/01 12:02:16;;;;;;;14.97;6.50;;;;;;;9.49;90.70;99110.95;125920;1099;101892;-79
2023/12/01 12:05:04;;;;;;;;;;;;;;;;;;;;;
2023/12/01 12:07:45;;;;;;;14.30;6.37;;;;;;;9.55;90.74;99118.92;126087;1099;103697;-78